Time;durP1;ratioP1;P1;durP2;ratioP2;P2;SDS_P1;SDS_P2;PMS_P1;PMS_P2;Temp;Humidity;BMP_temperature;BMP_pressure;BME280_temperature;BME280_humidity;BME280_pressure;Samples;Min_cycle;Max_cycle;Signal;HPM_P1;HPM_P2
2023/11/17 10:36:57;;;;;;;16.15;6.07;;;;;;;19.26;60.34;101887.91;4990292;27;97832;-58
2023/11/17 10:39:24;;;;;;;22.80;6.30;;;;;;;19.53;61.73;101897.41;4961102;28;97078;-59
2023/11/17 10:41:50;;;;;;;22.13;5.95;;;;;;;19.92;59.85;101902.41;4954078;28;97490;-59
2023/11/17 10:44:28;;;;;;;14.23;5.50;;;;;;;20.22;59.47;101900.34;4951493;28;97232;-59
2023/11/17 10:46:54;;;;;;;15.45;5.40;;;;;;;20.42;58.22;101902.78;4934696;28;96825;-59
2023/11/17 10:49:22;;;;;;;13.93;5.20;;;;;;;20.56;56.47;101908.78;4940083;28;97564;-58
2023/11/17 10:51:50;;;;;;;14.38;5.60;;;;;;;20.67;55.91;101906.03;4937410;28;98044;-66
2023/11/17 10:54:16;;;;;;;14.55;5.53;;;;;;;20.76;54.80;101905.91;4958011;28;103852;-66
2023/11/17 10:56:44;;;;;;;14.43;5.50;;;;;;;20.85;54.56;101910.22;4943231;28;98783;-67
2023/11/17 10:59:15;;;;;;;14.30;5.38;;;;;;;20.96;53.88;101908.28;4949552;28;97977;-65
2023/11/17 11:01:41;;;;;;;14.88;4.68;;;;;;;21.10;53.43;101909.00;4952884;28;97552;-68
2023/11/17 11:04:09;;;;;;;12.43;4.50;;;;;;;21.14;53.08;101908.94;4945414;28;123296;-67
2023/11/17 11:06:43;;;;;;;11.35;4.93;;;;;;;21.14;53.10;101908.94;4934513;28;96669;-67
2023/11/17 11:09:09;;;;;;;13.00;4.63;;;;;;;21.19;52.74;101915.06;4934864;28;96751;-68
2023/11/17 11:11:38;;;;;;;10.90;4.43;;;;;;;21.21;52.17;101911.50;4961307;28;97458;-68
2023/11/17 11:14:04;;;;;;;9.25;4.03;;;;;;;21.16;52.07;101916.00;4942568;28;105102;-68
2023/11/17 11:16:31;;;;;;;9.98;3.85;;;;;;;21.20;52.20;101912.38;4947221;28;97576;-68
2023/11/17 11:18:58;;;;;;;12.27;4.57;;;;;;;21.25;51.83;101920.28;4945745;28;97539;-68
2023/11/17 11:21:27;;;;;;;11.05;4.40;;;;;;;21.28;51.89;101926.41;4959385;28;97552;-68
2023/11/17 11:23:59;;;;;;;10.38;4.90;;;;;;;21.44;51.17;101935.03;4943710;28;97294;-66
2023/11/17 11:26:28;;;;;;;9.98;4.10;;;;;;;21.57;50.63;101929.53;4950649;28;96996;-65
2023/11/17 11:28:54;;;;;;;11.48;4.25;;;;;;;21.66;50.39;101927.63;4944466;28;97159;-68
2023/11/17 11:31:20;;;;;;;8.20;4.43;;;;;;;21.73;50.18;101922.19;4929207;28;97867;-68
2023/11/17 11:33:46;;;;;;;9.90;4.13;;;;;;;21.72;50.28;101923.97;4939000;28;97181;-68
2023/11/17 11:36:12;;;;;;;9.57;3.70;;;;;;;21.64;50.23;101928.53;4950652;28;96844;-68
2023/11/17 11:38:47;;;;;;;11.27;4.47;;;;;;;21.66;50.27;101927.63;4931007;28;96926;-68
2023/11/17 11:41:15;;;;;;;9.80;4.28;;;;;;;21.61;50.29;101936.56;4941887;28;97533;-68
2023/11/17 11:43:47;;;;;;;10.32;4.05;;;;;;;21.57;50.26;101934.84;4938006;28;97280;-70
2023/11/17 11:46:15;;;;;;;13.00;5.35;;;;;;;21.49;50.43;101932.31;4947358;28;97855;-68
2023/11/17 11:48:43;;;;;;;9.32;4.65;;;;;;;21.46;50.43;101930.59;4931753;28;96826;-68
2023/11/17 11:51:10;;;;;;;10.82;4.13;;;;;;;21.44;50.50;101932.38;4936305;28;96793;-68
2023/11/17 11:53:49;;;;;;;7.20;4.15;;;;;;;21.43;50.36;101935.91;4933756;28;97318;-68
2023/11/17 11:56:15;;;;;;;8.45;4.00;;;;;;;21.41;50.42;101934.19;4919399;28;98113;-59
2023/11/17 11:58:44;;;;;;;8.40;4.25;;;;;;;21.30;50.52;101937.88;4928255;28;96783;-68
2023/11/17 12:01:16;;;;;;;8.45;4.10;;;;;;;21.23;50.54;101935.31;4933081;28;97611;-68
2023/11/17 12:03:51;;;;;;;9.95;4.60;;;;;;;21.20;50.75;101943.34;4931851;28;97268;-68
2023/11/17 12:06:29;;;;;;;7.38;3.78;;;;;;;21.15;50.70;101954.00;4936539;28;96838;-68
2023/11/17 12:09:09;;;;;;;7.03;3.75;;;;;;;21.10;51.10;101947.88;4920269;28;97180;-68
2023/11/17 12:11:43;;;;;;;7.18;3.95;;;;;;;21.06;51.12;101948.84;4925960;28;97492;-68
2023/11/17 12:14:10;;;;;;;7.47;3.83;;;;;;;21.07;51.12;101950.59;4934255;28;97205;-68
2023/11/17 12:16:38;;;;;;;8.38;3.80;;;;;;;21.02;51.29;101955.09;4924782;28;96735;-69
2023/11/17 12:19:04;;;;;;;7.55;3.80;;;;;;;21.01;51.23;101954.19;4922419;28;96713;-68
2023/11/17 12:21:38;;;;;;;5.90;3.25;;;;;;;21.01;51.31;101948.88;4926175;28;99835;-68
2023/11/17 12:24:22;;;;;;;6.28;3.72;;;;;;;20.99;50.94;101950.69;4934936;28;98534;-68
2023/11/17 12:26:47;;;;;;;7.05;3.53;;;;;;;21.03;51.08;101947.13;4923742;28;96683;-68
2023/11/17 12:29:27;;;;;;;5.70;3.60;;;;;;;21.04;50.79;101951.50;4909946;28;96863;-68
2023/11/17 12:31:53;;;;;;;6.15;3.42;;;;;;;21.06;50.94;101946.19;4920058;28;99275;-68
2023/11/17 12:34:19;;;;;;;7.53;3.20;;;;;;;21.01;50.94;101946.25;4916150;28;97265;-69
2023/11/17 12:36:47;;;;;;;11.52;6.40;;;;;;;20.43;48.07;101947.81;4913022;28;96848;-69
2023/11/17 12:39:16;;;;;;;9.65;5.10;;;;;;;20.25;49.79;101951.53;4915708;28;97237;-69
2023/11/17 12:41:41;;;;;;;9.07;4.65;;;;;;;20.47;50.01;101949.53;4912151;28;97694;-69
2023/11/17 12:44:07;;;;;;;9.70;4.75;;;;;;;20.62;50.16;101952.94;4919215;28;97355;-71
2023/11/17 12:46:32;;;;;;;9.57;4.30;;;;;;;20.72;49.92;101943.97;4918829;28;110322;-68
2023/11/17 12:48:58;;;;;;;10.57;4.70;;;;;;;20.77;49.62;101952.75;4917513;28;96940;-69
2023/11/17 12:51:24;;;;;;;10.75;3.97;;;;;;;20.84;49.57;101950.91;4934857;28;97544;-70
2023/11/17 12:53:50;;;;;;;8.98;3.95;;;;;;;20.80;49.60;101963.34;4913931;28;99164;-68
2023/11/17 12:56:16;;;;;;;10.82;4.03;;;;;;;20.80;50.15;101959.78;4920264;28;98434;-69
2023/11/17 12:58:42;;;;;;;6.25;3.35;;;;;;;20.94;50.02;101955.19;4901506;28;98366;-67
2023/11/17 13:01:17;;;;;;;8.55;3.78;;;;;;;20.95;49.79;101948.13;4902478;28;118024;-59
2023/11/17 13:03:43;;;;;;;13.43;6.75;;;;;;;20.63;43.57;101952.91;4901834;28;97244;-59
2023/11/17 13:06:09;;;;;;;14.07;6.95;;;;;;;19.86;44.29;101951.00;4904735;28;98615;-60
2023/11/17 13:08:35;;;;;;;11.32;6.35;;;;;;;19.95;45.81;101950.06;4920121;28;96763;-60
2023/11/17 13:11:02;;;;;;;12.52;5.22;;;;;;;20.19;46.40;101962.16;4927641;28;97462;-59
2023/11/17 13:13:28;;;;;;;11.32;5.15;;;;;;;20.38;46.63;101962.88;4917027;28;97211;-60
2023/11/17 13:15:54;;;;;;;9.63;4.57;;;;;;;20.47;46.58;101967.19;4899103;28;96936;-60
2023/11/17 13:18:19;;;;;;;11.30;5.00;;;;;;;20.54;46.25;101966.25;4916583;28;97547;-60
2023/11/17 13:20:46;;;;;;;8.35;4.43;;;;;;;20.62;46.06;101964.41;4923851;28;116567;-60
2023/11/17 13:23:11;;;;;;;8.32;4.32;;;;;;;20.65;46.04;101950.25;4918919;28;99519;-63
2023/11/17 13:26:07;;;;;;;7.82;4.97;;;;;;;20.68;46.12;101960.81;4921431;28;96857;-60
2023/11/17 13:28:38;;;;;;;8.20;3.63;;;;;;;20.71;46.64;101950.16;4920758;28;96837;-60
2023/11/17 13:31:23;;;;;;;7.47;3.13;;;;;;;20.77;46.76;101957.19;4908580;28;98224;-60
2023/11/17 13:33:52;;;;;;;9.25;3.83;;;;;;;20.80;46.79;101960.69;4913109;28;97208;-60
2023/11/17 13:36:34;;;;;;;5.07;2.75;;;;;;;20.83;47.32;101959.75;4914850;28;96948;-61
2023/11/17 13:39:14;;;;;;;5.68;2.60;;;;;;;20.83;47.54;101965.91;4903674;28;96813;-60
2023/11/17 13:41:44;;;;;;;8.05;3.13;;;;;;;20.84;47.68;101978.28;4905154;28;97485;-60
2023/11/17 13:44:19;;;;;;;5.28;2.45;;;;;;;20.85;48.00;101989.78;4921008;28;98345;-60
2023/11/17 13:46:47;;;;;;;5.10;2.30;;;;;;;20.83;47.40;101983.63;4924764;28;97239;-60
2023/11/17 13:49:15;;;;;;;4.90;2.28;;;;;;;20.81;47.43;101983.63;4922760;28;97188;-59
2023/11/17 13:51:44;;;;;;;3.95;1.80;;;;;;;20.79;47.55;101992.50;4911279;28;97557;-60
2023/11/17 13:54:16;;;;;;;;;;;;;;;20.77;48.00;101994.31;4919766;28;97503;-60
2023/11/17 13:56:51;;;;;;;3.00;1.55;;;;;;;20.79;47.78;102008.41;4914120;28;96824;-60
2023/11/17 13:59:22;;;;;;;4.63;1.98;;;;;;;20.82;47.81;102001.31;4916468;28;97187;-61
2023/11/17 14:01:52;;;;;;;4.68;2.60;;;;;;;20.78;47.97;102009.31;4917672;28;97565;-60
2023/11/17 14:04:24;;;;;;;3.80;2.40;;;;;;;20.77;48.13;102007.56;4920271;28;99117;-60
2023/11/17 14:06:53;;;;;;;4.45;1.80;;;;;;;20.77;47.97;102004.91;4917356;28;96829;-60
2023/11/17 14:09:22;;;;;;;3.20;1.80;;;;;;;20.77;47.95;102010.22;4916681;28;96844;-60
2023/11/17 14:11:48;;;;;;;4.63;2.00;;;;;;;20.76;48.31;102003.13;4914347;28;97553;-60
2023/11/17 14:14:15;;;;;;;3.47;1.92;;;;;;;20.76;48.27;102008.44;4914357;28;109545;-60
2023/11/17 14:16:51;;;;;;;3.97;1.85;;;;;;;20.72;48.44;102004.94;4913777;28;96657;-60
2023/11/17 14:19:20;;;;;;;3.40;1.70;;;;;;;20.72;48.47;102008.47;4905688;28;96952;-60
2023/11/17 14:21:46;;;;;;;4.45;1.83;;;;;;;20.70;48.51;102018.22;4910009;28;97459;-60
2023/11/17 14:24:17;;;;;;;3.28;1.67;;;;;;;20.70;48.37;102023.53;4918799;28;97209;-60
2023/11/17 14:26:46;;;;;;;3.88;1.73;;;;;;;20.68;48.73;102021.78;4933576;28;97934;-70
2023/11/17 14:29:13;;;;;;;3.08;1.73;;;;;;;20.71;48.44;102035.00;4921887;28;96874;-71
2023/11/17 14:31:45;;;;;;;4.18;1.83;;;;;;;20.68;48.21;102030.63;4914838;28;96690;-71
2023/11/17 14:34:23;;;;;;;4.43;1.88;;;;;;;20.67;48.57;102034.16;4921156;28;98557;-71
2023/11/17 14:36:49;;;;;;;3.58;1.73;;;;;;;20.67;48.31;102018.25;4914897;28;96718;-71
2023/11/17 14:39:15;;;;;;;3.20;1.60;;;;;;;20.68;48.50;102024.44;4928163;28;96836;-71
2023/11/17 14:41:40;;;;;;;4.28;1.50;;;;;;;20.64;48.44;102028.91;4931791;28;99551;-70
2023/11/17 14:44:07;;;;;;;5.03;1.85;;;;;;;20.61;48.67;102025.38;4916265;28;119518;-70
2023/11/17 14:46:33;;;;;;;3.60;1.80;;;;;;;20.62;48.72;102027.16;4916013;28;96876;-60
2023/11/17 14:49:01;;;;;;;3.08;1.52;;;;;;;20.63;48.56;102036.88;4916681;28;96942;-60
2023/11/17 14:51:29;;;;;;;4.15;1.77;;;;;;;20.63;48.76;102036.88;4904740;28;97770;-60
2023/11/17 14:53:55;;;;;;;3.00;1.50;;;;;;;20.63;48.91;102043.03;4913477;28;97326;-60
2023/11/17 14:56:21;;;;;;;4.07;1.70;;;;;;;20.63;48.45;102047.47;4913400;28;96772;-60
2023/11/17 14:58:46;;;;;;;4.22;1.65;;;;;;;20.61;48.64;102046.59;4915107;28;97367;-60
2023/11/17 15:01:14;;;;;;;3.67;1.42;;;;;;;20.61;48.53;102058.09;4910386;28;97715;-60
2023/11/17 15:03:41;;;;;;;3.53;1.40;;;;;;;20.62;48.95;102037.75;4905602;28;99278;-60
2023/11/17 15:06:17;;;;;;;4.65;1.70;;;;;;;20.60;48.58;102047.47;4913048;28;97108;-60
2023/11/17 15:08:47;;;;;;;3.50;1.85;;;;;;;20.59;48.69;102045.69;4922728;28;96777;-71
2023/11/17 15:11:13;;;;;;;3.97;1.75;;;;;;;20.60;48.66;102053.63;4916289;28;97579;-70
2023/11/17 15:13:42;;;;;;;4.30;1.60;;;;;;;20.60;48.53;102061.59;4919380;28;97120;-69
2023/11/17 15:16:09;;;;;;;;;;;;;;;20.64;48.38;102067.75;4916525;28;98719;-70
2023/11/17 15:18:38;;;;;;;3.92;1.83;;;;;;;20.64;48.44;102073.97;4920128;28;97224;-71
2023/11/17 15:21:06;;;;;;;4.10;1.90;;;;;;;20.61;48.24;102063.38;4920489;28;97734;-70
2023/11/17 15:23:32;;;;;;;3.60;1.65;;;;;;;20.60;48.51;102072.19;4917453;28;97421;-70
2023/11/17 15:25:57;;;;;;;3.28;1.60;;;;;;;20.58;48.46;102081.94;4925714;28;96814;-70
2023/11/17 15:28:23;;;;;;;4.03;1.88;;;;;;;20.59;48.59;102078.41;4922509;28;96848;-70
2023/11/17 15:30:54;;;;;;;4.03;1.90;;;;;;;20.59;48.24;102083.69;4917249;28;120726;-71
2023/11/17 15:33:20;;;;;;;5.57;3.10;;;;;;;20.43;48.03;102076.78;4904054;28;97365;-68
2023/11/17 15:35:46;;;;;;;5.97;2.30;;;;;;;20.41;48.77;102084.75;4906785;28;98256;-71
2023/11/17 15:38:11;;;;;;;4.85;2.35;;;;;;;20.51;48.17;102083.75;4907848;28;97709;-70
2023/11/17 15:40:37;;;;;;;7.43;2.67;;;;;;;20.56;47.83;102088.16;4909633;28;97590;-70
2023/11/17 15:43:07;;;;;;;7.38;2.63;;;;;;;20.56;47.60;102085.50;4911348;28;97177;-72
2023/11/17 15:45:33;;;;;;;5.78;3.22;;;;;;;20.54;47.34;102090.81;4924849;28;96827;-72
2023/11/17 15:47:59;;;;;;;5.35;2.40;;;;;;;20.57;47.56;102096.09;4912462;28;96744;-71
2023/11/17 15:50:24;;;;;;;8.02;2.80;;;;;;;20.59;47.46;102080.16;4915292;28;97568;-72
2023/11/17 15:52:50;;;;;;;6.63;3.33;;;;;;;20.61;47.69;102079.28;4916248;28;126629;-71
2023/11/17 15:55:16;;;;;;;9.75;3.00;;;;;;;20.60;47.45;102092.53;4914401;28;103012;-73
2023/11/17 15:57:45;;;;;;;7.95;2.63;;;;;;;20.63;47.72;102081.94;4927404;28;97279;-72
2023/11/17 16:00:12;;;;;;;;;;;;;;;20.62;47.66;102094.28;4912564;28;97389;-70
2023/11/17 16:02:41;;;;;;;6.53;2.53;;;;;;;20.63;47.65;102089.88;4910281;28;99157;-71
2023/11/17 16:05:15;;;;;;;6.95;2.70;;;;;;;20.63;47.36;102101.34;4917096;28;96887;-69
2023/11/17 16:07:47;;;;;;;6.53;2.42;;;;;;;19.95;49.32;102112.47;4906756;28;97140;-65
2023/11/17 16:10:15;;;;;;;5.38;2.28;;;;;;;19.66;50.27;102119.63;4921143;28;97426;-65
2023/11/17 16:12:42;;;;;;;7.38;2.35;;;;;;;19.55;50.59;102119.69;4910425;28;100084;-66
2023/11/17 16:15:12;;;;;;;7.93;2.53;;;;;;;19.49;50.78;102119.72;4901843;28;97239;-66
2023/11/17 16:17:41;;;;;;;5.45;2.42;;;;;;;19.43;51.21;102133.88;4918425;28;96842;-64
2023/11/17 16:20:14;;;;;;;7.32;3.40;;;;;;;19.40;49.58;102144.47;4920767;28;97273;-66
2023/11/17 16:22:45;;;;;;;9.77;3.65;;;;;;;19.37;50.16;102141.81;4894706;28;97330;-69
2023/11/17 16:25:14;;;;;;;10.52;2.95;;;;;;;19.38;50.42;102143.59;4922069;28;96811;-69
2023/11/17 16:27:41;;;;;;;10.70;3.55;;;;;;;19.39;50.98;102145.34;4918551;28;96909;-70
2023/11/17 16:30:13;;;;;;;8.98;2.97;;;;;;;19.42;50.75;102155.03;4916666;28;97489;-68
2023/11/17 16:32:41;;;;;;;14.63;3.53;;;;;;;19.46;51.00;102146.19;4915814;28;97301;-69
2023/11/17 16:35:10;;;;;;;11.32;3.10;;;;;;;19.51;51.04;102141.78;4917210;28;96861;-68
2023/11/17 16:37:39;;;;;;;;;;;;;;;19.53;51.49;102138.22;4932353;28;96813;-69
2023/11/17 16:40:09;;;;;;;8.05;2.75;;;;;;;19.59;51.70;102129.41;4918397;28;97471;-69
2023/11/17 16:42:36;;;;;;;9.10;3.20;;;;;;;19.60;51.76;102125.84;4909908;28;97308;-70
2023/11/17 16:45:02;;;;;;;8.48;3.03;;;;;;;19.58;51.56;102133.78;4922388;28;96791;-69
2023/11/17 16:47:28;;;;;;;6.70;2.65;;;;;;;19.57;52.03;102137.34;4922258;28;96867;-70
2023/11/17 16:49:54;;;;;;;10.45;2.58;;;;;;;19.56;51.63;102140.00;4936348;28;100554;-69
2023/11/17 16:52:20;;;;;;;10.70;2.92;;;;;;;19.58;51.27;102132.91;4893073;28;98010;-71
2023/11/17 16:54:46;;;;;;;6.03;2.80;;;;;;;19.57;51.45;102139.09;4904286;28;110325;-68
2023/11/17 16:57:13;;;;;;;8.23;3.00;;;;;;;19.57;51.67;102134.69;4919159;28;96902;-68
2023/11/17 16:59:40;;;;;;;6.53;2.55;;;;;;;19.58;51.70;102139.09;4919523;28;97371;-70
2023/11/17 17:02:11;;;;;;;8.77;3.20;;;;;;;19.51;50.26;102155.00;4920738;28;97252;-65
2023/11/17 17:04:36;;;;;;;12.45;4.05;;;;;;;19.48;48.76;102157.66;4910051;28;97278;-65
2023/11/17 17:07:03;;;;;;;6.45;2.75;;;;;;;19.52;50.75;102156.78;4916870;28;108118;-65
2023/11/17 17:09:29;;;;;;;6.47;2.58;;;;;;;19.56;51.11;102156.75;4919494;28;97438;-65
2023/11/17 17:11:56;;;;;;;7.00;2.88;;;;;;;19.58;51.53;102167.31;4915595;28;122797;-66
2023/11/17 17:14:21;;;;;;;11.80;2.75;;;;;;;19.58;51.11;102165.53;4916534;28;96800;-65
2023/11/17 17:16:51;;;;;;;16.50;3.22;;;;;;;19.60;51.41;102154.97;4924759;28;97166;-64
2023/11/17 17:19:17;;;;;;;7.55;3.40;;;;;;;19.64;51.49;102158.47;4923132;28;97463;-64
2023/11/17 17:21:43;;;;;;;9.52;2.90;;;;;;;19.66;51.04;102162.00;4912306;28;97945;-64
2023/11/17 17:24:09;;;;;;;7.32;3.13;;;;;;;19.65;50.72;102153.19;4918249;28;96926;-65
2023/11/17 17:26:38;;;;;;;8.82;3.15;;;;;;;19.65;51.13;102150.53;4921456;28;112707;-65
2023/11/17 17:29:04;;;;;;;7.10;3.13;;;;;;;19.65;51.24;102150.53;4919162;28;97422;-69
2023/11/17 17:31:30;;;;;;;7.97;2.70;;;;;;;19.67;50.76;102146.09;4907297;28;108125;-68
2023/11/17 17:33:56;;;;;;;10.23;3.10;;;;;;;19.60;50.13;102162.91;4903626;28;97288;-68
2023/11/17 17:36:23;;;;;;;7.78;3.45;;;;;;;19.68;50.79;102157.56;4922616;28;97411;-68
2023/11/17 17:38:49;;;;;;;8.82;3.05;;;;;;;19.82;50.07;102160.19;4921644;28;97435;-68
2023/11/17 17:41:19;;;;;;;7.15;3.03;;;;;;;19.89;50.02;102160.16;4915989;28;97054;-68
2023/11/17 17:43:46;;;;;;;7.70;3.47;;;;;;;19.93;49.38;102159.25;4915727;28;96691;-68
2023/11/17 17:46:13;;;;;;;9.88;3.33;;;;;;;19.94;49.55;102161.00;4907723;28;97384;-68
2023/11/17 17:48:38;;;;;;;12.88;3.03;;;;;;;19.99;49.26;102171.56;4912607;28;97590;-70
2023/11/17 17:51:04;;;;;;;8.43;3.35;;;;;;;20.00;49.25;102164.50;4907917;28;97340;-68
2023/11/17 17:53:30;;;;;;;8.57;3.10;;;;;;;19.99;49.18;102170.72;4907959;28;96923;-68
2023/11/17 17:55:55;;;;;;;7.35;2.97;;;;;;;20.01;48.72;102177.75;4915971;28;96815;-68
2023/11/17 17:58:22;;;;;;;7.10;3.30;;;;;;;20.01;48.86;102187.47;4912953;28;97535;-68
2023/11/17 18:00:48;;;;;;;8.20;2.75;;;;;;;19.99;48.88;102187.47;4907571;28;97280;-68
2023/11/17 18:03:14;;;;;;;4.78;2.65;;;;;;;19.99;48.76;102191.88;4910502;28;96904;-68
2023/11/17 18:05:39;;;;;;;8.15;3.10;;;;;;;19.92;48.94;102199.84;4910054;28;106406;-69
2023/11/17 18:08:06;;;;;;;6.10;2.70;;;;;;;19.82;49.07;102213.13;4907106;28;97341;-68
2023/11/17 18:10:32;;;;;;;6.57;3.17;;;;;;;19.76;49.19;102212.28;4903148;28;97512;-68
2023/11/17 18:12:57;;;;;;;6.38;3.55;;;;;;;19.74;49.01;102221.13;4907210;28;97517;-68
2023/11/17 18:15:23;;;;;;;6.43;3.20;;;;;;;19.70;49.16;102224.63;4912635;28;97286;-69
2023/11/17 18:17:51;;;;;;;6.80;3.20;;;;;;;19.66;49.28;102223.78;4910242;28;116894;-68
2023/11/17 18:20:18;;;;;;;4.70;2.25;;;;;;;19.65;49.19;102227.28;4911100;28;97125;-68
2023/11/17 18:22:48;;;;;;;4.85;2.30;;;;;;;19.62;49.50;102222.00;4891939;28;98629;-68
2023/11/17 18:25:15;;;;;;;7.30;2.67;;;;;;;19.62;49.14;102229.06;4909939;28;97012;-68
2023/11/17 18:27:43;;;;;;;7.70;3.00;;;;;;;19.57;48.98;102222.03;4907398;28;99426;-68
2023/11/17 18:30:09;;;;;;;5.95;2.90;;;;;;;19.56;49.06;102219.38;4908026;28;104862;-68
2023/11/17 18:32:35;;;;;;;4.40;2.95;;;;;;;19.54;49.11;102227.31;4907993;28;96978;-68
2023/11/17 18:35:03;;;;;;;5.03;2.42;;;;;;;19.52;49.31;102223.81;4913356;28;115772;-68
2023/11/17 18:37:29;;;;;;;5.50;2.53;;;;;;;19.50;49.42;102224.69;4912980;28;97531;-68
2023/11/17 18:39:54;;;;;;;7.22;2.53;;;;;;;19.49;49.42;102238.81;4910686;28;123832;-68
2023/11/17 18:42:20;;;;;;;5.05;3.00;;;;;;;19.48;49.27;102242.31;4911651;28;102450;-68
2023/11/17 18:44:47;;;;;;;5.93;2.42;;;;;;;19.46;49.03;102241.44;4910580;28;97414;-68
2023/11/17 18:47:13;;;;;;;6.18;2.58;;;;;;;19.45;49.31;102244.97;4910712;28;97539;-68
2023/11/17 18:49:39;;;;;;;3.78;2.22;;;;;;;19.45;49.34;102242.31;4909434;28;97445;-68
2023/11/17 18:52:04;;;;;;;6.07;2.92;;;;;;;19.45;49.39;102237.03;4911320;28;96863;-68
2023/11/17 18:54:30;;;;;;;5.40;3.10;;;;;;;19.42;49.40;102234.41;4907727;28;96891;-68
2023/11/17 18:56:56;;;;;;;6.03;3.72;;;;;;;19.42;49.21;102237.06;4907913;28;97945;-68
2023/11/17 18:59:21;;;;;;;4.18;2.45;;;;;;;19.40;49.44;102245.00;4917324;28;97310;-69
2023/11/17 19:01:47;;;;;;;4.85;2.60;;;;;;;19.40;49.15;102243.22;4921044;28;97305;-68
2023/11/17 19:04:18;;;;;;;5.82;2.67;;;;;;;19.39;49.12;102251.16;4916413;28;97668;-69
2023/11/17 19:06:47;;;;;;;4.90;2.42;;;;;;;19.38;48.96;102258.22;4911876;28;97570;-68
2023/11/17 19:09:12;;;;;;;5.43;2.33;;;;;;;19.37;49.32;102253.81;4909363;28;99370;-68
2023/11/17 19:11:39;;;;;;;5.88;3.08;;;;;;;19.37;49.27;102252.94;4915217;28;96769;-68
2023/11/17 19:14:05;;;;;;;5.07;3.03;;;;;;;19.36;49.16;102265.28;4918117;28;96831;-68
2023/11/17 19:16:30;;;;;;;5.15;2.63;;;;;;;19.35;49.39;102252.94;4914255;28;97815;-69
2023/11/17 19:18:56;;;;;;;5.97;3.10;;;;;;;19.34;49.02;102255.56;4915956;28;106425;-69
2023/11/17 19:21:22;;;;;;;6.70;3.10;;;;;;;19.34;48.84;102263.50;4910299;28;96900;-69
2023/11/17 19:23:48;;;;;;;5.95;2.92;;;;;;;19.34;48.83;102264.41;4915901;28;96998;-69
2023/11/17 19:26:14;;;;;;;4.95;2.58;;;;;;;19.33;48.80;102248.53;4913625;28;97486;-69
2023/11/17 19:28:39;;;;;;;5.88;2.67;;;;;;;19.33;48.95;102253.84;4928209;28;98289;-69
2023/11/17 19:31:05;;;;;;;5.05;3.10;;;;;;;19.31;48.86;102251.19;4896827;28;96830;-69
2023/11/17 19:33:31;;;;;;;6.45;2.53;;;;;;;19.32;49.01;102249.41;4913213;28;96989;-65
2023/11/17 19:35:57;;;;;;;4.03;2.50;;;;;;;19.31;48.71;102252.97;4914852;28;97440;-69
2023/11/17 19:38:23;;;;;;;4.47;2.35;;;;;;;19.33;48.73;102253.84;4917085;28;100254;-69
2023/11/17 19:40:50;;;;;;;4.95;3.08;;;;;;;19.40;48.40;102260.88;4911917;28;99700;-70
2023/11/17 19:43:15;;;;;;;7.95;3.40;;;;;;;19.57;48.22;102263.47;4913188;28;97913;-71
2023/11/17 19:45:43;;;;;;;5.32;3.08;;;;;;;19.75;47.93;102263.47;4915268;28;109185;-71
2023/11/17 19:48:10;;;;;;;6.70;2.50;;;;;;;19.80;48.12;102266.09;4916493;28;97314;-71
2023/11/17 19:50:36;;;;;;;6.40;2.22;;;;;;;19.82;47.95;102268.72;4910898;28;96866;-71
2023/11/17 19:53:02;;;;;;;6.22;2.50;;;;;;;19.84;47.80;102270.50;4915207;28;96862;-71
2023/11/17 19:55:27;;;;;;;4.60;2.63;;;;;;;19.85;47.92;102282.84;4915068;28;97380;-71
2023/11/17 19:57:53;;;;;;;4.30;2.53;;;;;;;19.85;47.97;102274.03;4906847;28;124018;-71
2023/11/17 20:00:25;;;;;;;6.95;2.40;;;;;;;19.84;47.67;102277.56;4915753;28;96706;-71
2023/11/17 20:02:54;;;;;;;4.53;1.98;;;;;;;19.85;47.93;102282.84;4907722;28;98561;-71
2023/11/17 20:05:21;;;;;;;5.88;2.45;;;;;;;19.85;47.29;102272.25;4910878;28;97708;-71
2023/11/17 20:07:47;;;;;;;6.68;2.58;;;;;;;19.86;47.42;102275.81;4925608;28;97329;-71
2023/11/17 20:10:13;;;;;;;7.28;2.42;;;;;;;19.76;47.72;102277.59;4914662;28;97809;-72
2023/11/17 20:12:40;;;;;;;4.72;2.88;;;;;;;19.68;47.61;102287.25;4908692;28;97260;-71
2023/11/17 20:15:11;;;;;;;5.45;2.83;;;;;;;19.59;47.66;102289.06;4911115;28;97580;-71
2023/11/17 20:17:37;;;;;;;5.07;3.20;;;;;;;19.54;48.16;102288.19;4915362;28;97287;-71
2023/11/17 20:20:05;;;;;;;6.88;3.67;;;;;;;19.53;47.96;102283.78;4930213;28;97352;-71
2023/11/17 20:22:30;;;;;;;5.75;3.33;;;;;;;19.51;47.74;102290.84;4910880;28;96905;-71
2023/11/17 20:24:57;;;;;;;5.47;2.90;;;;;;;19.50;48.20;102299.69;4912513;28;97361;-71
2023/11/17 20:27:24;;;;;;;5.60;3.17;;;;;;;19.46;48.09;102302.31;4912458;28;96986;-71
2023/11/17 20:29:49;;;;;;;5.72;2.83;;;;;;;19.45;48.08;102295.25;4911502;28;97811;-71
2023/11/17 20:32:15;;;;;;;5.82;3.47;;;;;;;19.44;48.15;102296.16;4917453;28;97113;-71
2023/11/17 20:34:40;;;;;;;6.10;3.08;;;;;;;19.42;47.71;102296.16;4913998;28;97583;-71
2023/11/17 20:37:08;;;;;;;6.28;3.50;;;;;;;19.41;48.34;102302.31;4906556;28;97247;-71
2023/11/17 20:39:34;;;;;;;5.22;3.47;;;;;;;19.42;47.86;102303.22;4913072;28;96835;-71
2023/11/17 20:42:00;;;;;;;6.00;3.00;;;;;;;19.39;48.03;102307.63;4896438;28;98441;-71
2023/11/17 20:44:26;;;;;;;6.95;3.22;;;;;;;19.38;48.02;102315.56;4898659;28;97568;-69
2023/11/17 20:46:52;;;;;;;6.28;4.00;;;;;;;19.40;47.93;102313.78;4913779;28;97220;-69
2023/11/17 20:49:18;;;;;;;6.20;2.88;;;;;;;19.37;48.00;102309.38;4923375;28;96772;-70
2023/11/17 20:51:46;;;;;;;4.28;2.70;;;;;;;19.36;47.67;102312.03;4911130;28;96757;-69
2023/11/17 20:54:12;;;;;;;6.40;2.63;;;;;;;19.35;47.87;102312.91;4915575;28;98379;-70
2023/11/17 20:56:41;;;;;;;4.72;2.72;;;;;;;19.34;48.15;102304.09;4908578;28;98073;-69
2023/11/17 20:59:12;;;;;;;4.38;3.33;;;;;;;19.34;47.91;102292.63;4910832;28;96812;-70
2023/11/17 21:01:39;;;;;;;7.80;2.88;;;;;;;19.31;48.03;102298.81;4910779;28;98130;-70
2023/11/17 21:04:05;;;;;;;5.68;2.72;;;;;;;19.31;47.88;102296.16;4914084;28;97499;-69
2023/11/17 21:06:31;;;;;;;5.32;2.72;;;;;;;19.31;47.99;102287.34;4912618;28;97199;-69
2023/11/17 21:08:58;;;;;;;6.40;2.90;;;;;;;19.31;47.63;102290.88;4911606;28;97009;-70
2023/11/17 21:11:25;;;;;;;5.60;2.88;;;;;;;19.30;47.93;102297.03;4912849;28;96921;-70
2023/11/17 21:13:51;;;;;;;5.22;2.60;;;;;;;19.30;47.83;102299.66;4930809;28;98257;-70
2023/11/17 21:16:16;;;;;;;5.63;3.10;;;;;;;19.29;47.71;102300.56;4914663;28;97118;-69
2023/11/17 21:18:43;;;;;;;6.03;3.10;;;;;;;19.30;47.99;102301.44;4912538;28;96718;-70
2023/11/17 21:21:11;;;;;;;6.30;3.80;;;;;;;19.29;47.86;102302.34;4912444;28;96924;-70
2023/11/17 21:23:39;;;;;;;5.82;4.00;;;;;;;19.29;47.81;102297.06;4900335;28;97918;-70
2023/11/17 21:26:06;;;;;;;5.10;2.88;;;;;;;19.28;47.80;102303.22;4911438;28;116734;-70
2023/11/17 21:28:33;;;;;;;5.20;3.47;;;;;;;19.28;47.70;102304.09;4915129;28;97844;-70
2023/11/17 21:31:02;;;;;;;5.53;3.17;;;;;;;19.28;47.54;102305.88;4915380;28;97154;-70
2023/11/17 21:33:31;;;;;;;6.22;3.05;;;;;;;19.28;47.50;102311.16;4906725;28;97461;-70
2023/11/17 21:35:57;;;;;;;5.85;2.95;;;;;;;19.29;47.79;102318.22;4915446;28;97820;-70
2023/11/17 21:38:26;;;;;;;4.18;2.40;;;;;;;19.26;47.75;102308.50;4916811;28;97410;-70
2023/11/17 21:40:56;;;;;;;5.22;3.15;;;;;;;19.29;47.65;102312.94;4908976;28;97621;-65
2023/11/17 21:43:25;;;;;;;5.95;3.25;;;;;;;19.31;47.33;102308.50;4911869;28;97360;-70
2023/11/17 21:45:53;;;;;;;5.70;3.15;;;;;;;19.51;47.23;102309.34;4910776;28;97386;-69
2023/11/17 21:48:22;;;;;;;9.13;3.42;;;;;;;19.65;46.73;102316.41;4910234;28;96715;-69
2023/11/17 21:50:47;;;;;;;5.68;2.75;;;;;;;19.70;46.54;102315.50;4905955;28;105228;-70
2023/11/17 21:53:15;;;;;;;8.00;3.50;;;;;;;19.68;46.88;102316.38;4907732;28;97507;-69
2023/11/17 21:55:41;;;;;;;4.93;2.83;;;;;;;19.67;46.80;102315.50;4897622;28;97211;-69
2023/11/17 21:58:07;;;;;;;7.32;2.85;;;;;;;19.68;46.49;102316.38;4915161;28;96817;-69
2023/11/17 22:00:33;;;;;;;5.85;3.10;;;;;;;19.68;46.73;102313.72;4903332;28;96777;-69
2023/11/17 22:02:59;;;;;;;5.50;3.35;;;;;;;19.69;46.70;102313.75;4908918;28;97584;-69